Latest Weather Observations for Horn Island

IDQ60801

Issued at 10:12 pm EST Tuesday 4 August 2020 (issued every 10 minutes, with the page automatically refreshed every 10 minutes)

About weather observations | Map of weather stations | Latest weather observations for QLD | Other Formats
Station Details ID: 027058 Name: HORN ISLAND Lat: -10.58 Lon: 142.29 Height: 4.0 m
Data from the previous 72 hours. | See also: Recent months at Horn Island
Date/Time
EST
Temp
°C
App
Temp
°C
Dew
Point
°C
Rel
Hum
%
Delta-T
°C
Wind Press
QNH
hPa
Press
MSL
hPa
Rain since
9am
mm
Dir  Spd
km/h
Gust
km/h
Spd
kts
Gust
kts
04/10:00pm 24.7 24.1 20.6 78 2.7 ESE 24 32 13 17 1012.1 1012.1 0.0
04/09:30pm 24.7 25.0 20.4 77 2.8 ESE 19 26 10 14 1012.1 1012.1 0.0
04/09:00pm 24.6 25.1 20.1 76 2.9 SE 17 24 9 13 1011.8 1011.8 0.0
04/08:30pm 24.8 24.8 20.1 75 3.0 SE 20 32 11 17 1011.4 1011.4 0.0
04/08:00pm 24.9 24.8 19.9 74 3.2 SE 20 30 11 16 1011.1 1011.1 0.0
04/07:30pm 25.1 25.1 20.1 74 3.2 SE 20 30 11 16 1010.8 1010.8 0.0
04/07:00pm 25.3 24.9 20.1 73 3.4 ESE 22 30 12 16 1010.4 1010.4 0.0
04/06:30pm 25.6 24.3 19.9 70 3.7 ESE 26 33 14 18 1010.0 1010.0 0.0
04/06:00pm 26.1 24.9 20.0 69 4.0 ESE 26 33 14 18 1009.6 1009.6 0.0
04/05:30pm 26.5 24.5 19.9 67 4.3 ESE 30 39 16 21 1009.6 1009.6 0.0
04/05:00pm 27.0 24.6 19.9 65 4.6 ESE 32 43 17 23 1009.3 1009.3 0.0
04/04:30pm 27.8 26.2 20.1 63 5.0 ESE 28 39 15 21 1009.3 1009.3 0.0
04/04:00pm 27.9 25.9 19.9 61 5.2 ESE 30 37 16 20 1009.1 1009.1 0.0
04/03:30pm 28.8 27.0 21.1 63 5.1 ESE 32 41 17 22 1009.0 1009.0 0.0
04/03:00pm 28.5 26.6 20.2 60 5.5 ESE 30 41 16 22 1009.2 1009.2 0.0
04/02:30pm 28.7 26.8 21.0 63 5.1 ESE 32 41 17 22 1009.4 1009.4 0.0
04/02:00pm 28.2 26.5 20.5 63 5.1 ESE 30 39 16 21 1009.8 1009.8 0.0
04/01:30pm 28.5 26.3 20.8 63 5.1 ESE 33 43 18 23 1010.3 1010.3 0.0
04/01:00pm 28.2 26.2 20.7 63 5.0 ESE 32 41 17 22 1010.7 1010.7 0.0
04/12:30pm 28.8 27.2 21.6 65 4.8 ESE 32 39 17 21 1011.1 1011.1 0.0
04/12:00pm 28.9 28.1 22.4 68 4.4 ESE 30 39 16 21 1011.5 1011.5 0.0
04/11:30am 27.6 26.4 21.6 70 4.0 ESE 30 39 16 21 1012.0 1012.0 0.0
04/11:00am 27.0 25.7 21.3 71 3.8 SE 30 41 16 22 1012.4 1012.4 0.0
04/10:30am 27.1 26.4 21.8 73 3.5 ESE 28 39 15 21 1012.7 1012.7 0.0
04/10:00am 26.5 25.6 21.5 74 3.3 ESE 28 37 15 20 1012.8 1012.8 0.0
04/09:30am 26.2 26.2 21.6 76 3.1 ESE 24 33 13 18 1012.8 1012.8 0.0
04/09:00am 26.0 26.8 21.7 77 2.9 SE 20 30 11 16 1012.5 1012.5 0.2
04/08:30am 25.3 26.1 21.4 79 2.6 SE 19 30 10 16 1012.1 1012.1 0.2
04/08:00am 24.8 24.4 20.9 79 2.6 SE 24 32 13 17 1011.6 1011.6 0.2
04/07:30am 24.6 24.6 20.9 80 2.4 SE 22 32 12 17 1011.4 1011.4 0.2
04/07:00am 24.5 24.0 20.8 80 2.4 ESE 24 32 13 17 1011.5 1011.5 0.2
04/06:30am 24.2 24.4 20.5 80 2.4 SE 20 26 11 14 1011.0 1011.0 0.2
04/06:00am 24.2 24.0 20.5 80 2.4 SE 22 32 12 17 1010.9 1010.9 0.2
04/05:30am 24.1 24.2 20.4 80 2.4 SE 20 30 11 16 1010.9 1010.9 0.2
04/05:00am 24.1 23.5 20.4 80 2.4 SE 24 35 13 19 1010.7 1010.7 0.2
04/04:30am 24.3 23.7 20.6 80 2.4 SE 24 32 13 17 1010.6 1010.6 0.2
04/04:00am 24.2 23.6 20.5 80 2.4 SE 24 32 13 17 1010.6 1010.6 0.2
04/03:30am 24.2 24.4 20.5 80 2.4 ESE 20 28 11 15 1010.7 1010.7 0.2
04/03:00am 24.2 24.0 20.5 80 2.4 ESE 22 30 12 16 1010.8 1010.8 0.2
04/02:30am 24.1 23.8 20.4 80 2.4 ESE 22 32 12 17 1011.0 1011.0 0.2
04/02:00am 24.2 24.4 20.5 80 2.4 ESE 20 28 11 15 1011.2 1011.2 0.2
04/01:30am 24.3 24.5 20.6 80 2.4 ESE 20 28 11 15 1011.4 1011.4 0.2
04/01:00am 24.2 23.9 20.3 79 2.5 ESE 22 30 12 16 1011.5 1011.5 0.2
04/12:30am 24.3 24.0 20.4 79 2.5 ESE 22 30 12 16 1011.8 1011.8 0.2
04/12:00am 24.3 23.9 20.2 78 2.7 ESE 22 30 12 16 1012.0 1012.0 0.2
 
Date/Time
EST
Temp
°C
App
Temp
°C
Dew
Point
°C
Rel
Hum
%
Delta-T
°C
Wind Press
QNH
hPa
Press
MSL
hPa
Rain since
9am
mm
Dir  Spd
km/h
Gust
km/h
Spd
kts
Gust
kts
03/11:30pm 24.3 24.3 20.2 78 2.7 ESE 20 28 11 15 1012.2 1012.2 0.2
03/11:00pm 24.4 24.0 20.1 77 2.8 ESE 22 32 12 17 1012.2 1012.2 0.2
03/10:30pm 24.3 24.2 20.0 77 2.8 ESE 20 32 11 17 1012.3 1012.3 0.2
03/10:00pm 24.4 23.9 19.9 76 2.9 SE 22 28 12 15 1012.3 1012.3 0.2
03/09:30pm 24.4 24.5 19.9 76 2.9 SE 19 26 10 14 1012.4 1012.4 0.2
03/09:00pm 24.5 24.3 19.8 75 3.0 SE 20 30 11 16 1012.3 1012.3 0.2
03/08:30pm 24.5 24.2 19.6 74 3.2 SE 20 32 11 17 1012.1 1012.1 0.2
03/08:00pm 24.7 24.3 19.3 72 3.5 SE 20 32 11 17 1011.9 1011.9 0.2
03/07:30pm 25.0 24.6 19.4 71 3.6 SE 20 28 11 15 1011.7 1011.7 0.2
03/07:00pm 25.1 24.3 19.2 70 3.8 SE 22 30 12 16 1011.2 1011.2 0.2
03/06:30pm 25.3 23.7 19.2 69 3.9 ESE 26 35 14 19 1011.1 1011.1 0.2
03/06:00pm 25.7 24.1 19.3 67 4.1 ESE 26 37 14 20 1010.9 1010.9 0.2
03/05:30pm 26.3 25.0 19.9 68 4.2 ESE 26 35 14 19 1010.6 1010.6 0.2
03/05:00pm 27.0 25.1 20.1 66 4.5 ESE 30 39 16 21 1010.3 1010.3 0.2
03/04:30pm 26.9 24.8 19.8 65 4.6 ESE 30 39 16 21 1010.3 1010.3 0.2
03/04:00pm 27.3 25.1 19.6 62 5.0 ESE 30 41 16 22 1010.4 1010.4 0.2
03/03:30pm 27.4 25.4 20.0 64 4.8 ESE 30 41 16 22 1010.4 1010.4 0.2
03/03:00pm 27.8 25.6 20.4 64 4.9 ESE 32 39 17 21 1010.3 1010.3 0.2
03/02:30pm 28.6 27.3 21.4 65 4.8 ESE 30 41 16 22 1010.6 1010.6 0.2
03/02:00pm 27.5 24.7 20.3 65 4.7 ESE 35 44 19 24 1010.9 1010.9 0.2
03/01:30pm 27.8 26.0 20.4 64 4.9 ESE 30 41 16 22 1011.2 1011.2 0.2
03/01:00pm 27.9 25.6 20.2 63 5.1 ESE 32 41 17 22 1011.5 1011.5 0.2
03/12:30pm 28.8 28.0 21.6 65 4.8 ESE 28 44 15 24 1011.8 1011.8 0.2
03/12:00pm 28.5 27.8 21.8 67 4.5 ESE 28 35 15 19 1012.1 1012.1 0.2
03/11:30am 28.0 26.9 21.8 69 4.2 ESE 30 39 16 21 1012.5 1012.5 0.2
03/11:00am 27.3 26.2 21.1 69 4.1 ESE 28 41 15 22 1012.8 1012.8 0.2
03/10:30am 27.2 26.7 21.5 71 3.8 ESE 26 37 14 20 1013.1 1013.1 0.2
03/10:00am 27.3 26.5 22.3 74 3.4 SE 30 39 16 21 1013.3 1013.3 0.2
03/09:30am 26.2 26.4 21.4 75 3.2 ESE 22 30 12 16 1013.4 1013.4 0.0
03/09:00am 25.4 24.7 21.1 77 2.8 SE 26 33 14 18 1013.2 1013.2 1.0
03/08:30am 25.1 25.5 21.0 78 2.7 SE 20 28 11 15 1013.0 1013.0 1.0
03/08:00am 24.7 23.1 20.8 79 2.6 ESE 30 41 16 22 1012.5 1012.5 1.0
03/07:30am 24.1 24.1 20.2 79 2.5 ESE 20 30 11 16 1012.2 1012.2 1.0
03/07:00am 23.7 24.1 19.8 79 2.5 SE 17 24 9 13 1012.1 1012.1 1.0
03/06:30am 23.5 23.4 19.6 79 2.5 SE 19 30 10 16 1011.7 1011.7 1.0
03/06:00am 23.5 23.3 19.8 80 2.4 SE 20 26 11 14 1011.5 1011.5 1.0
03/05:30am 23.6 23.4 19.7 79 2.5 SE 20 28 11 15 1011.3 1011.3 1.0
03/05:00am 23.5 22.9 19.8 80 2.4 SE 22 35 12 19 1011.3 1011.3 1.0
03/04:30am 23.7 23.7 20.2 81 2.3 SE 20 32 11 17 1011.3 1011.3 1.0
03/04:00am 23.8 24.0 20.5 82 2.1 SE 20 28 11 15 1011.4 1011.4 1.0
03/03:30am 23.3 21.4 20.1 82 2.1 ESE 30 41 16 22 1011.6 1011.6 1.0
03/03:00am 24.1 23.5 21.2 84 1.9 SE 26 37 14 20 1011.6 1011.6 1.0
03/02:30am 23.8 23.5 21.1 85 1.8 ESE 24 32 13 17 1011.8 1011.8 1.0
03/02:00am 23.1 22.5 20.4 85 1.8 SE 24 43 13 23 1012.0 1012.0 1.0
03/01:30am 23.4 24.6 20.7 85 1.8 SE 15 22 8 12 1012.1 1012.1 1.0
03/01:00am 23.1 23.8 20.4 85 1.8 SE 17 24 9 13 1012.2 1012.2 1.0
03/12:56am 23.1 23.8 20.4 85 1.7 SE 17 24 9 13 1012.2 1012.2 1.0
03/12:39am 23.2 23.8 20.3 84 1.9 SE 17 26 9 14 1012.3 1012.3 0.8
03/12:30am 23.4 23.7 20.5 84 1.9 SE 19 28 10 15 1012.4 1012.4 0.2
03/12:00am 23.2 23.5 20.3 84 1.9 SE 19 30 10 16 1012.5 1012.5 0.2
 
Date/Time
EST
Temp
°C
App
Temp
°C
Dew
Point
°C
Rel
Hum
%
Delta-T
°C
Wind Press
QNH
hPa
Press
MSL
hPa
Rain since
9am
mm
Dir  Spd
km/h
Gust
km/h
Spd
kts
Gust
kts
02/11:30pm 22.9 23.3 19.9 83 1.9 SE 17 20 9 11 1012.7 1012.7 0.0
02/11:26pm 22.7 23.0 19.7 83 1.9 ESE 17 26 9 14 1012.7 1012.7 0.0
02/11:04pm 23.0 21.2 19.6 81 2.2 SE 28 41 15 22 1012.9 1012.9 0.0
02/11:00pm 23.6 22.4 20.1 81 2.3 SE 26 41 14 22 1012.9 1012.9 0.0
02/10:30pm 23.0 21.7 19.8 82 2.1 ESE 26 35 14 19 1012.9 1012.9 0.0
02/10:24pm 23.1 21.4 19.9 82 2.1 ESE 28 35 15 19 1013.0 1013.0 0.0
02/10:13pm 23.7 23.0 20.2 81 2.3 SE 24 33 13 18 1013.1 1013.1 0.0
02/10:00pm 23.4 22.9 20.0 81 2.2 ESE 22 32 12 17 1013.1 1013.1 0.0
02/09:32pm 23.0 22.0 19.6 81 2.2 SE 24 33 13 18 1013.0 1013.0 0.0
02/09:30pm 23.1 22.0 19.5 80 2.3 ESE 24 41 13 22 1012.9 1012.9 0.0
02/09:19pm 23.6 23.5 19.9 80 2.4 ESE 20 28 11 15 1012.7 1012.7 0.0
02/09:00pm 23.8 23.3 19.9 79 2.5 SE 22 32 12 17 1012.6 1012.6 0.0
02/08:30pm 23.9 23.3 19.8 78 2.6 SE 22 35 12 19 1012.5 1012.5 0.0
02/08:00pm 24.2 23.8 20.1 78 2.7 SE 22 32 12 17 1012.2 1012.2 0.0
02/07:30pm 24.3 24.2 20.0 77 2.8 SE 20 28 11 15 1012.0 1012.0 0.0
02/07:00pm 24.6 24.5 19.9 75 3.0 SE 20 30 11 16 1011.8 1011.8 0.0
02/06:30pm 25.1 24.2 19.9 73 3.4 ESE 24 32 13 17 1011.4 1011.4 0.0
02/06:00pm 25.3 24.4 19.9 72 3.5 ESE 24 33 13 18 1011.3 1011.3 0.0
02/05:30pm 26.0 25.2 20.1 70 3.8 ESE 24 35 13 19 1011.0 1011.0 0.0
02/05:00pm 26.0 24.3 19.9 69 4.0 ESE 28 39 15 21 1010.9 1010.9 0.0
02/04:30pm 26.8 25.1 20.6 69 4.1 ESE 30 39 16 21 1010.8 1010.8 0.0
02/04:00pm 27.1 25.8 20.7 68 4.2 E 28 37 15 20 1010.9 1010.9 0.0
02/03:30pm 27.3 26.7 20.6 67 4.4 ESE 24 35 13 19 1011.0 1011.0 0.0
02/03:00pm 27.4 26.3 21.0 68 4.2 ESE 28 35 15 19 1011.3 1011.3 0.0
02/02:30pm 27.1 26.2 20.7 68 4.2 ESE 26 37 14 20 1011.4 1011.4 0.0
02/02:00pm 27.5 26.6 20.6 66 4.5 E 26 35 14 19 1011.6 1011.6 0.0
02/01:30pm 28.0 27.9 21.5 67 4.3 E 24 32 13 17 1012.0 1012.0 0.0
02/01:00pm 27.3 26.6 21.1 69 4.1 E 26 33 14 18 1012.4 1012.4 0.0
02/12:30pm 27.6 27.6 21.6 70 4.0 ESE 24 32 13 17 1012.7 1012.7 0.0
02/12:00pm 27.2 27.1 21.5 71 3.8 E 24 32 13 17 1013.2 1013.2 0.0
02/11:30am 27.0 26.8 21.3 71 3.8 E 24 32 13 17 1013.5 1013.5 0.0
02/11:00am 26.9 26.5 21.6 72 3.5 ESE 26 35 14 19 1013.9 1013.9 0.0
02/10:30am 26.9 27.2 22.3 76 3.1 SE 24 32 13 17 1014.1 1014.1 0.0
02/10:00am 26.6 27.1 22.7 79 2.6 ESE 24 35 13 19 1014.2 1014.2 0.0
02/09:30am 25.0 26.2 21.5 81 2.3 SE 17 20 9 11 1014.3 1014.3 0.0
02/09:00am 24.5 25.7 21.4 83 2.0 SE 17 22 9 12 1014.3 1014.3 0.2
02/08:30am 23.6 25.3 20.9 85 1.8 SE 13 20 7 11 1014.2 1014.2 0.2
02/08:00am 22.6 23.9 20.1 86 1.6 SSE 13 17 7 9 1013.9 1013.9 0.2
02/07:30am 22.0 23.7 19.4 85 1.7 SSE 9 13 5 7 1013.8 1013.8 0.0
02/07:00am 21.8 23.1 19.2 85 1.6 SSE 11 13 6 7 1013.5 1013.5 0.0
02/06:30am 22.0 22.9 19.2 84 1.8 S 13 17 7 9 1013.4 1013.4 0.0
02/06:00am 22.2 23.1 19.2 83 1.9 SSE 13 17 7 9 1013.1 1013.1 0.0
02/05:30am 22.1 23.7 19.1 83 1.9 S 9 11 5 6 1013.0 1013.0 0.0
02/05:00am 22.0 23.1 18.8 82 2.0 S 11 13 6 7 1013.0 1013.0 0.0
02/04:30am 22.2 23.6 18.6 80 2.3 SSE 9 13 5 7 1013.0 1013.0 0.0
02/04:00am 22.4 23.4 18.6 79 2.4 S 11 13 6 7 1012.9 1012.9 0.0
02/03:30am 22.9 24.0 18.9 78 2.5 SSE 11 15 6 8 1013.0 1013.0 0.0
02/03:00am 23.7 25.0 19.2 76 2.9 SSE 11 15 6 8 1012.9 1012.9 0.0
02/02:30am 23.6 24.4 19.1 76 2.9 SE 13 17 7 9 1013.1 1013.1 0.0
02/02:00am 23.2 24.6 18.7 76 2.8 SE 9 15 5 8 1013.2 1013.2 0.0
02/01:30am 23.6 24.7 18.9 75 3.0 SE 11 17 6 9 1013.4 1013.4 0.0
02/01:00am 24.2 24.8 19.5 75 3.0 ESE 15 20 8 11 1013.5 1013.5 0.0
02/12:30am 23.7 25.3 19.2 76 2.9 SSE 9 11 5 6 1013.8 1013.8 0.0
02/12:00am 23.8 24.8 19.5 77 2.8 SSE 13 20 7 11 1013.8 1013.8 0.0
 
Date/Time
EST
Temp
°C
App
Temp
°C
Dew
Point
°C
Rel
Hum
%
Delta-T
°C
Wind Press
QNH
hPa
Press
MSL
hPa
Rain since
9am
mm
Dir  Spd
km/h
Gust
km/h
Spd
kts
Gust
kts
01/11:30pm 23.3 24.8 19.0 77 2.7 SSE 9 13 5 7 1014.1 1014.1 0.0
01/11:00pm 23.4 24.9 18.9 76 2.9 SSE 9 11 5 6 1014.2 1014.2 0.0
01/10:30pm 23.6 25.1 18.9 75 3.0 SSE 9 15 5 8 1014.2 1014.2 0.0

Other formats

Comma delimited format used in spreadsheet applications
http://www.bom.gov.au/fwo/IDQ60801/IDQ60801.94174.axf

JavaScript Object Notation format (JSON) in row-major order
http://www.bom.gov.au/fwo/IDQ60801/IDQ60801.94174.json

Data quality

Most of these data are generated automatically and are frequently updated. Quality checks on data are not normally performed. It is possible for incorrect values to appear. Refer to information at About Latest Weather Observations and please check the disclaimer before using these data.